sensor_id;sensor_type;location;lat;lon;timestamp;P1;durP1;ratioP1;P2;durP2;ratioP2
69912;SDS011;57198;52.082;5.108;2023-02-10T00:03:39;23.38;;;13.65;;
69912;SDS011;57198;52.082;5.108;2023-02-10T00:06:06;25.05;;;15.43;;
69912;SDS011;57198;52.082;5.108;2023-02-10T00:08:34;25.57;;;12.90;;
69912;SDS011;57198;52.082;5.108;2023-02-10T00:11:06;22.80;;;12.77;;
69912;SDS011;57198;52.082;5.108;2023-02-10T00:13:34;23.58;;;13.98;;
69912;SDS011;57198;52.082;5.108;2023-02-10T00:16:02;22.50;;;14.40;;
69912;SDS011;57198;52.082;5.108;2023-02-10T00:18:29;23.50;;;13.80;;
69912;SDS011;57198;52.082;5.108;2023-02-10T00:21:04;22.73;;;13.20;;
69912;SDS011;57198;52.082;5.108;2023-02-10T00:23:31;20.67;;;13.07;;
69912;SDS011;57198;52.082;5.108;2023-02-10T00:26:01;18.60;;;12.63;;
69912;SDS011;57198;52.082;5.108;2023-02-10T00:28:28;21.70;;;12.93;;
69912;SDS011;57198;52.082;5.108;2023-02-10T00:30:56;16.95;;;11.38;;
69912;SDS011;57198;52.082;5.108;2023-02-10T00:33:23;20.17;;;12.47;;
69912;SDS011;57198;52.082;5.108;2023-02-10T00:35:51;16.83;;;12.27;;
69912;SDS011;57198;52.082;5.108;2023-02-10T00:38:18;16.63;;;12.50;;
69912;SDS011;57198;52.082;5.108;2023-02-10T00:40:45;18.00;;;11.63;;
69912;SDS011;57198;52.082;5.108;2023-02-10T00:43:13;23.23;;;11.77;;
69912;SDS011;57198;52.082;5.108;2023-02-10T00:45:40;19.97;;;11.53;;
69912;SDS011;57198;52.082;5.108;2023-02-10T00:48:07;19.25;;;10.98;;
69912;SDS011;57198;52.082;5.108;2023-02-10T00:50:35;20.73;;;12.60;;
69912;SDS011;57198;52.082;5.108;2023-02-10T00:53:02;17.27;;;11.57;;
69912;SDS011;57198;52.082;5.108;2023-02-10T00:55:30;19.25;;;11.65;;
69912;SDS011;57198;52.082;5.108;2023-02-10T00:57:57;19.17;;;10.90;;
69912;SDS011;57198;52.082;5.108;2023-02-10T01:00:24;17.35;;;10.13;;
69912;SDS011;57198;52.082;5.108;2023-02-10T01:02:52;20.55;;;10.48;;
69912;SDS011;57198;52.082;5.108;2023-02-10T01:05:19;18.77;;;11.18;;
69912;SDS011;57198;52.082;5.108;2023-02-10T01:07:48;14.38;;;10.75;;
69912;SDS011;57198;52.082;5.108;2023-02-10T01:10:15;16.63;;;9.63;;
69912;SDS011;57198;52.082;5.108;2023-02-10T01:12:44;21.90;;;8.55;;
69912;SDS011;57198;52.082;5.108;2023-02-10T01:15:12;19.95;;;10.25;;
69912;SDS011;57198;52.082;5.108;2023-02-10T01:17:39;19.80;;;11.02;;
69912;SDS011;57198;52.082;5.108;2023-02-10T01:20:07;17.10;;;10.63;;
69912;SDS011;57198;52.082;5.108;2023-02-10T01:22:35;15.63;;;10.13;;
69912;SDS011;57198;52.082;5.108;2023-02-10T01:25:03;19.48;;;10.30;;
69912;SDS011;57198;52.082;5.108;2023-02-10T01:27:31;18.38;;;10.02;;
69912;SDS011;57198;52.082;5.108;2023-02-10T01:29:58;19.42;;;10.27;;
69912;SDS011;57198;52.082;5.108;2023-02-10T01:32:25;18.08;;;11.02;;
69912;SDS011;57198;52.082;5.108;2023-02-10T01:34:53;19.13;;;10.40;;
69912;SDS011;57198;52.082;5.108;2023-02-10T01:37:20;16.17;;;10.65;;
69912;SDS011;57198;52.082;5.108;2023-02-10T01:39:48;18.02;;;10.88;;
69912;SDS011;57198;52.082;5.108;2023-02-10T01:42:16;18.65;;;9.93;;
69912;SDS011;57198;52.082;5.108;2023-02-10T01:47:10;20.17;;;11.47;;
69912;SDS011;57198;52.082;5.108;2023-02-10T01:49:39;21.33;;;11.43;;
69912;SDS011;57198;52.082;5.108;2023-02-10T01:52:09;20.95;;;12.35;;
69912;SDS011;57198;52.082;5.108;2023-02-10T01:54:43;21.08;;;10.57;;
69912;SDS011;57198;52.082;5.108;2023-02-10T01:57:11;26.23;;;11.82;;
69912;SDS011;57198;52.082;5.108;2023-02-10T01:59:39;20.93;;;11.77;;
69912;SDS011;57198;52.082;5.108;2023-02-10T02:02:09;21.23;;;12.18;;
69912;SDS011;57198;52.082;5.108;2023-02-10T02:04:38;17.23;;;11.48;;
69912;SDS011;57198;52.082;5.108;2023-02-10T02:07:06;18.90;;;10.88;;
69912;SDS011;57198;52.082;5.108;2023-02-10T02:09:34;23.70;;;12.38;;
69912;SDS011;57198;52.082;5.108;2023-02-10T02:14:40;26.08;;;12.20;;
69912;SDS011;57198;52.082;5.108;2023-02-10T02:17:21;21.38;;;11.80;;
69912;SDS011;57198;52.082;5.108;2023-02-10T02:25:35;23.80;;;13.30;;
69912;SDS011;57198;52.082;5.108;2023-02-10T02:35:32;19.88;;;12.38;;
69912;SDS011;57198;52.082;5.108;2023-02-10T02:38:00;17.27;;;12.03;;
69912;SDS011;57198;52.082;5.108;2023-02-10T02:40:28;19.40;;;12.15;;
69912;SDS011;57198;52.082;5.108;2023-02-10T02:42:55;19.30;;;12.85;;
69912;SDS011;57198;52.082;5.108;2023-02-10T02:45:27;22.02;;;12.85;;
69912;SDS011;57198;52.082;5.108;2023-02-10T02:51:03;21.77;;;13.07;;
69912;SDS011;57198;52.082;5.108;2023-02-10T03:01:09;29.33;;;14.35;;
69912;SDS011;57198;52.082;5.108;2023-02-10T03:03:40;23.00;;;14.30;;
69912;SDS011;57198;52.082;5.108;2023-02-10T03:06:08;25.80;;;14.73;;
69912;SDS011;57198;52.082;5.108;2023-02-10T03:08:36;23.08;;;13.80;;
69912;SDS011;57198;52.082;5.108;2023-02-10T03:11:03;30.25;;;15.63;;
69912;SDS011;57198;52.082;5.108;2023-02-10T03:13:30;26.63;;;15.60;;
69912;SDS011;57198;52.082;5.108;2023-02-10T03:15:58;23.80;;;14.53;;
69912;SDS011;57198;52.082;5.108;2023-02-10T03:18:26;28.02;;;14.85;;
69912;SDS011;57198;52.082;5.108;2023-02-10T03:20:53;28.55;;;15.95;;
69912;SDS011;57198;52.082;5.108;2023-02-10T03:23:21;28.58;;;16.10;;
69912;SDS011;57198;52.082;5.108;2023-02-10T03:25:48;33.60;;;16.48;;
69912;SDS011;57198;52.082;5.108;2023-02-10T03:28:16;27.20;;;16.43;;
69912;SDS011;57198;52.082;5.108;2023-02-10T03:30:44;26.63;;;16.33;;
69912;SDS011;57198;52.082;5.108;2023-02-10T03:33:16;29.05;;;17.05;;
69912;SDS011;57198;52.082;5.108;2023-02-10T03:35:44;26.33;;;15.55;;
69912;SDS011;57198;52.082;5.108;2023-02-10T03:38:13;30.23;;;17.13;;
69912;SDS011;57198;52.082;5.108;2023-02-10T03:40:41;27.60;;;14.43;;
69912;SDS011;57198;52.082;5.108;2023-02-10T03:43:08;28.98;;;16.88;;
69912;SDS011;57198;52.082;5.108;2023-02-10T03:45:37;27.02;;;15.98;;
69912;SDS011;57198;52.082;5.108;2023-02-10T03:48:05;29.08;;;16.52;;
69912;SDS011;57198;52.082;5.108;2023-02-10T03:50:32;25.25;;;15.75;;
69912;SDS011;57198;52.082;5.108;2023-02-10T03:52:59;29.80;;;17.17;;
69912;SDS011;57198;52.082;5.108;2023-02-10T03:55:27;27.58;;;16.08;;
69912;SDS011;57198;52.082;5.108;2023-02-10T03:57:54;26.42;;;16.05;;
69912;SDS011;57198;52.082;5.108;2023-02-10T04:00:21;25.25;;;15.23;;
69912;SDS011;57198;52.082;5.108;2023-02-10T04:02:49;32.97;;;15.73;;
69912;SDS011;57198;52.082;5.108;2023-02-10T04:05:16;31.87;;;17.27;;
69912;SDS011;57198;52.082;5.108;2023-02-10T04:07:44;25.13;;;15.95;;
69912;SDS011;57198;52.082;5.108;2023-02-10T04:10:11;26.98;;;17.23;;
69912;SDS011;57198;52.082;5.108;2023-02-10T04:12:39;29.58;;;15.77;;
69912;SDS011;57198;52.082;5.108;2023-02-10T04:15:06;29.08;;;16.98;;
69912;SDS011;57198;52.082;5.108;2023-02-10T04:17:34;27.80;;;16.65;;
69912;SDS011;57198;52.082;5.108;2023-02-10T04:20:01;30.55;;;17.13;;
69912;SDS011;57198;52.082;5.108;2023-02-10T04:22:28;26.48;;;16.60;;
69912;SDS011;57198;52.082;5.108;2023-02-10T04:24:56;30.50;;;17.20;;
69912;SDS011;57198;52.082;5.108;2023-02-10T04:27:23;28.70;;;17.75;;
69912;SDS011;57198;52.082;5.108;2023-02-10T04:29:50;31.67;;;16.93;;
69912;SDS011;57198;52.082;5.108;2023-02-10T04:32:18;31.63;;;17.58;;
69912;SDS011;57198;52.082;5.108;2023-02-10T04:34:45;30.00;;;18.00;;
69912;SDS011;57198;52.082;5.108;2023-02-10T04:37:13;32.78;;;18.25;;
69912;SDS011;57198;52.082;5.108;2023-02-10T04:39:40;32.67;;;18.48;;
69912;SDS011;57198;52.082;5.108;2023-02-10T04:42:07;29.10;;;17.33;;
69912;SDS011;57198;52.082;5.108;2023-02-10T04:44:35;31.73;;;18.60;;
69912;SDS011;57198;52.082;5.108;2023-02-10T04:47:02;27.65;;;17.42;;
69912;SDS011;57198;52.082;5.108;2023-02-10T04:49:30;33.72;;;20.23;;
69912;SDS011;57198;52.082;5.108;2023-02-10T04:51:57;31.90;;;18.67;;
69912;SDS011;57198;52.082;5.108;2023-02-10T04:54:24;32.87;;;18.93;;
69912;SDS011;57198;52.082;5.108;2023-02-10T04:56:51;42.20;;;20.02;;
69912;SDS011;57198;52.082;5.108;2023-02-10T04:59:19;34.15;;;19.70;;
69912;SDS011;57198;52.082;5.108;2023-02-10T05:01:46;35.15;;;19.88;;
69912;SDS011;57198;52.082;5.108;2023-02-10T05:04:13;32.40;;;19.40;;
69912;SDS011;57198;52.082;5.108;2023-02-10T05:06:41;40.40;;;20.40;;
69912;SDS011;57198;52.082;5.108;2023-02-10T05:09:08;35.03;;;19.58;;
69912;SDS011;57198;52.082;5.108;2023-02-10T05:11:35;36.20;;;20.25;;
69912;SDS011;57198;52.082;5.108;2023-02-10T05:14:03;40.70;;;21.42;;
69912;SDS011;57198;52.082;5.108;2023-02-10T05:16:30;36.67;;;19.75;;
69912;SDS011;57198;52.082;5.108;2023-02-10T05:18:57;37.43;;;21.10;;
69912;SDS011;57198;52.082;5.108;2023-02-10T05:21:25;32.60;;;19.05;;
69912;SDS011;57198;52.082;5.108;2023-02-10T05:23:52;38.45;;;20.95;;
69912;SDS011;57198;52.082;5.108;2023-02-10T05:26:19;35.88;;;20.17;;
69912;SDS011;57198;52.082;5.108;2023-02-10T05:28:46;35.40;;;19.42;;
69912;SDS011;57198;52.082;5.108;2023-02-10T05:31:14;33.10;;;18.07;;
69912;SDS011;57198;52.082;5.108;2023-02-10T05:33:41;35.80;;;18.23;;
69912;SDS011;57198;52.082;5.108;2023-02-10T05:36:09;34.00;;;18.42;;
69912;SDS011;57198;52.082;5.108;2023-02-10T05:38:36;32.42;;;16.83;;
69912;SDS011;57198;52.082;5.108;2023-02-10T05:41:04;35.33;;;19.15;;
69912;SDS011;57198;52.082;5.108;2023-02-10T05:43:31;42.03;;;19.07;;
69912;SDS011;57198;52.082;5.108;2023-02-10T05:45:58;28.52;;;17.88;;
69912;SDS011;57198;52.082;5.108;2023-02-10T05:48:26;29.55;;;18.05;;
69912;SDS011;57198;52.082;5.108;2023-02-10T05:50:53;28.67;;;16.33;;
69912;SDS011;57198;52.082;5.108;2023-02-10T05:53:20;31.08;;;18.55;;
69912;SDS011;57198;52.082;5.108;2023-02-10T05:55:48;34.10;;;18.77;;
69912;SDS011;57198;52.082;5.108;2023-02-10T05:58:15;32.83;;;17.45;;
69912;SDS011;57198;52.082;5.108;2023-02-10T06:00:43;34.97;;;18.13;;
69912;SDS011;57198;52.082;5.108;2023-02-10T06:03:10;29.95;;;16.10;;
69912;SDS011;57198;52.082;5.108;2023-02-10T06:05:37;32.13;;;17.63;;
69912;SDS011;57198;52.082;5.108;2023-02-10T06:08:06;30.60;;;18.17;;
69912;SDS011;57198;52.082;5.108;2023-02-10T06:10:33;32.05;;;16.33;;
69912;SDS011;57198;52.082;5.108;2023-02-10T06:13:00;27.90;;;17.13;;
69912;SDS011;57198;52.082;5.108;2023-02-10T06:15:28;24.88;;;16.23;;
69912;SDS011;57198;52.082;5.108;2023-02-10T06:17:55;28.08;;;15.75;;
69912;SDS011;57198;52.082;5.108;2023-02-10T06:20:22;28.53;;;15.63;;
69912;SDS011;57198;52.082;5.108;2023-02-10T06:22:49;23.23;;;15.20;;
69912;SDS011;57198;52.082;5.108;2023-02-10T06:25:17;25.02;;;14.15;;
69912;SDS011;57198;52.082;5.108;2023-02-10T06:27:44;22.98;;;13.90;;
69912;SDS011;57198;52.082;5.108;2023-02-10T06:30:11;25.80;;;14.98;;
69912;SDS011;57198;52.082;5.108;2023-02-10T06:32:39;24.17;;;14.60;;
69912;SDS011;57198;52.082;5.108;2023-02-10T06:35:06;23.75;;;14.55;;
69912;SDS011;57198;52.082;5.108;2023-02-10T06:37:34;23.42;;;14.07;;
69912;SDS011;57198;52.082;5.108;2023-02-10T06:40:03;20.15;;;13.20;;
69912;SDS011;57198;52.082;5.108;2023-02-10T06:42:30;23.02;;;13.45;;
69912;SDS011;57198;52.082;5.108;2023-02-10T06:44:57;23.20;;;13.20;;
69912;SDS011;57198;52.082;5.108;2023-02-10T06:47:25;24.05;;;12.60;;
69912;SDS011;57198;52.082;5.108;2023-02-10T06:49:53;20.38;;;12.20;;
69912;SDS011;57198;52.082;5.108;2023-02-10T06:52:20;19.85;;;12.88;;
69912;SDS011;57198;52.082;5.108;2023-02-10T06:54:50;18.92;;;12.68;;
69912;SDS011;57198;52.082;5.108;2023-02-10T06:57:18;19.73;;;14.07;;
69912;SDS011;57198;52.082;5.108;2023-02-10T06:59:45;18.80;;;11.68;;
69912;SDS011;57198;52.082;5.108;2023-02-10T07:02:13;21.88;;;13.15;;
69912;SDS011;57198;52.082;5.108;2023-02-10T07:04:40;16.95;;;11.40;;
69912;SDS011;57198;52.082;5.108;2023-02-10T07:07:07;16.90;;;12.50;;
69912;SDS011;57198;52.082;5.108;2023-02-10T07:09:35;19.63;;;11.77;;
69912;SDS011;57198;52.082;5.108;2023-02-10T07:12:03;14.65;;;11.75;;
69912;SDS011;57198;52.082;5.108;2023-02-10T07:14:31;16.98;;;11.82;;
69912;SDS011;57198;52.082;5.108;2023-02-10T07:16:58;16.73;;;11.90;;
69912;SDS011;57198;52.082;5.108;2023-02-10T07:19:26;16.55;;;12.27;;
69912;SDS011;57198;52.082;5.108;2023-02-10T07:21:54;18.90;;;11.90;;
69912;SDS011;57198;52.082;5.108;2023-02-10T07:24:21;17.85;;;11.30;;
69912;SDS011;57198;52.082;5.108;2023-02-10T07:26:48;17.63;;;11.52;;
69912;SDS011;57198;52.082;5.108;2023-02-10T07:29:15;15.13;;;10.10;;
69912;SDS011;57198;52.082;5.108;2023-02-10T07:31:43;21.92;;;11.73;;
69912;SDS011;57198;52.082;5.108;2023-02-10T07:34:10;14.17;;;10.30;;
69912;SDS011;57198;52.082;5.108;2023-02-10T07:36:38;16.00;;;11.43;;
69912;SDS011;57198;52.082;5.108;2023-02-10T07:39:05;17.20;;;11.65;;
69912;SDS011;57198;52.082;5.108;2023-02-10T07:41:34;15.98;;;11.02;;
69912;SDS011;57198;52.082;5.108;2023-02-10T07:44:02;16.88;;;12.45;;
69912;SDS011;57198;52.082;5.108;2023-02-10T07:46:29;15.90;;;11.77;;
69912;SDS011;57198;52.082;5.108;2023-02-10T07:48:56;17.83;;;11.13;;
69912;SDS011;57198;52.082;5.108;2023-02-10T07:51:24;16.30;;;12.65;;
69912;SDS011;57198;52.082;5.108;2023-02-10T07:53:52;16.38;;;11.95;;
69912;SDS011;57198;52.082;5.108;2023-02-10T07:56:19;13.38;;;10.30;;
69912;SDS011;57198;52.082;5.108;2023-02-10T07:58:46;16.67;;;12.73;;
69912;SDS011;57198;52.082;5.108;2023-02-10T08:01:14;25.58;;;16.42;;
69912;SDS011;57198;52.082;5.108;2023-02-10T08:03:41;21.35;;;13.18;;
69912;SDS011;57198;52.082;5.108;2023-02-10T08:06:08;21.52;;;13.20;;
69912;SDS011;57198;52.082;5.108;2023-02-10T08:08:36;20.45;;;13.93;;
69912;SDS011;57198;52.082;5.108;2023-02-10T08:11:06;22.00;;;15.17;;
69912;SDS011;57198;52.082;5.108;2023-02-10T08:13:33;23.92;;;14.60;;
69912;SDS011;57198;52.082;5.108;2023-02-10T08:16:03;20.95;;;14.13;;
69912;SDS011;57198;52.082;5.108;2023-02-10T08:18:31;16.80;;;12.00;;
69912;SDS011;57198;52.082;5.108;2023-02-10T08:20:59;18.90;;;13.65;;
69912;SDS011;57198;52.082;5.108;2023-02-10T08:23:26;17.30;;;13.23;;
69912;SDS011;57198;52.082;5.108;2023-02-10T08:25:54;18.02;;;13.55;;
69912;SDS011;57198;52.082;5.108;2023-02-10T08:28:21;18.45;;;13.85;;
69912;SDS011;57198;52.082;5.108;2023-02-10T08:30:49;16.48;;;12.13;;
69912;SDS011;57198;52.082;5.108;2023-02-10T08:33:16;19.65;;;14.07;;
69912;SDS011;57198;52.082;5.108;2023-02-10T08:35:43;17.50;;;12.07;;
69912;SDS011;57198;52.082;5.108;2023-02-10T08:38:11;18.58;;;12.95;;
69912;SDS011;57198;52.082;5.108;2023-02-10T08:40:39;20.45;;;14.85;;
69912;SDS011;57198;52.082;5.108;2023-02-10T08:43:06;21.95;;;14.88;;
69912;SDS011;57198;52.082;5.108;2023-02-10T08:45:34;15.07;;;11.60;;
69912;SDS011;57198;52.082;5.108;2023-02-10T08:48:04;19.43;;;13.60;;
69912;SDS011;57198;52.082;5.108;2023-02-10T08:50:31;18.05;;;12.98;;
69912;SDS011;57198;52.082;5.108;2023-02-10T08:52:58;19.10;;;14.23;;
69912;SDS011;57198;52.082;5.108;2023-02-10T08:55:26;19.50;;;15.02;;
69912;SDS011;57198;52.082;5.108;2023-02-10T08:57:53;19.13;;;13.88;;
69912;SDS011;57198;52.082;5.108;2023-02-10T09:00:20;18.73;;;15.48;;
69912;SDS011;57198;52.082;5.108;2023-02-10T09:02:48;20.02;;;14.27;;
69912;SDS011;57198;52.082;5.108;2023-02-10T09:05:16;18.67;;;14.23;;
69912;SDS011;57198;52.082;5.108;2023-02-10T09:07:45;17.73;;;14.30;;
69912;SDS011;57198;52.082;5.108;2023-02-10T09:10:13;17.75;;;13.95;;
69912;SDS011;57198;52.082;5.108;2023-02-10T09:12:41;14.27;;;12.77;;
69912;SDS011;57198;52.082;5.108;2023-02-10T09:15:08;16.23;;;14.53;;
69912;SDS011;57198;52.082;5.108;2023-02-10T09:17:36;15.80;;;14.07;;
69912;SDS011;57198;52.082;5.108;2023-02-10T09:20:03;16.55;;;13.25;;
69912;SDS011;57198;52.082;5.108;2023-02-10T09:22:32;14.65;;;13.15;;
69912;SDS011;57198;52.082;5.108;2023-02-10T09:24:59;16.00;;;13.63;;
69912;SDS011;57198;52.082;5.108;2023-02-10T09:27:29;14.73;;;13.17;;
69912;SDS011;57198;52.082;5.108;2023-02-10T09:29:56;15.10;;;13.50;;
69912;SDS011;57198;52.082;5.108;2023-02-10T09:32:24;14.13;;;12.73;;
69912;SDS011;57198;52.082;5.108;2023-02-10T09:34:51;15.07;;;13.13;;
69912;SDS011;57198;52.082;5.108;2023-02-10T09:37:19;13.85;;;12.32;;
69912;SDS011;57198;52.082;5.108;2023-02-10T09:39:47;15.23;;;13.13;;
69912;SDS011;57198;52.082;5.108;2023-02-10T09:44:59;13.60;;;12.20;;
69912;SDS011;57198;52.082;5.108;2023-02-10T09:47:43;17.30;;;12.25;;
69912;SDS011;57198;52.082;5.108;2023-02-10T09:50:28;15.20;;;12.30;;
69912;SDS011;57198;52.082;5.108;2023-02-10T09:55:48;13.40;;;11.38;;
69912;SDS011;57198;52.082;5.108;2023-02-10T09:58:21;13.48;;;11.73;;
69912;SDS011;57198;52.082;5.108;2023-02-10T10:00:56;16.08;;;11.63;;
69912;SDS011;57198;52.082;5.108;2023-02-10T10:03:26;16.95;;;11.32;;
69912;SDS011;57198;52.082;5.108;2023-02-10T10:06:00;15.30;;;11.63;;
69912;SDS011;57198;52.082;5.108;2023-02-10T10:11:26;12.25;;;10.95;;
69912;SDS011;57198;52.082;5.108;2023-02-10T10:13:54;13.88;;;10.88;;
69912;SDS011;57198;52.082;5.108;2023-02-10T10:21:26;12.80;;;11.05;;
69912;SDS011;57198;52.082;5.108;2023-02-10T10:26:53;13.85;;;11.30;;
69912;SDS011;57198;52.082;5.108;2023-02-10T10:32:06;15.67;;;11.03;;
69912;SDS011;57198;52.082;5.108;2023-02-10T10:34:38;13.13;;;11.10;;
69912;SDS011;57198;52.082;5.108;2023-02-10T10:37:11;14.25;;;10.85;;
69912;SDS011;57198;52.082;5.108;2023-02-10T10:39:47;12.00;;;10.13;;
69912;SDS011;57198;52.082;5.108;2023-02-10T10:42:25;12.07;;;10.88;;
69912;SDS011;57198;52.082;5.108;2023-02-10T10:44:59;14.10;;;11.00;;
69912;SDS011;57198;52.082;5.108;2023-02-10T10:50:10;13.00;;;10.45;;
69912;SDS011;57198;52.082;5.108;2023-02-10T10:52:39;14.35;;;11.30;;
69912;SDS011;57198;52.082;5.108;2023-02-10T10:55:19;14.55;;;10.60;;
69912;SDS011;57198;52.082;5.108;2023-02-10T10:57:48;13.40;;;11.00;;
69912;SDS011;57198;52.082;5.108;2023-02-10T11:00:25;14.23;;;10.80;;
69912;SDS011;57198;52.082;5.108;2023-02-10T11:02:56;15.18;;;11.52;;
69912;SDS011;57198;52.082;5.108;2023-02-10T11:05:32;12.93;;;11.35;;
69912;SDS011;57198;52.082;5.108;2023-02-10T11:07:59;14.57;;;11.45;;
69912;SDS011;57198;52.082;5.108;2023-02-10T11:10:33;13.90;;;11.90;;
69912;SDS011;57198;52.082;5.108;2023-02-10T11:15:58;13.50;;;11.52;;
69912;SDS011;57198;52.082;5.108;2023-02-10T11:18:27;13.65;;;11.13;;
69912;SDS011;57198;52.082;5.108;2023-02-10T11:20:58;12.65;;;11.00;;
69912;SDS011;57198;52.082;5.108;2023-02-10T11:24:20;13.17;;;11.07;;
69912;SDS011;57198;52.082;5.108;2023-02-10T11:29:21;13.63;;;10.43;;
69912;SDS011;57198;52.082;5.108;2023-02-10T11:31:50;14.02;;;10.95;;
69912;SDS011;57198;52.082;5.108;2023-02-10T11:34:37;13.88;;;10.77;;
69912;SDS011;57198;52.082;5.108;2023-02-10T11:37:10;17.60;;;11.07;;
69912;SDS011;57198;52.082;5.108;2023-02-10T11:39:39;13.52;;;11.43;;
69912;SDS011;57198;52.082;5.108;2023-02-10T11:44:56;12.88;;;10.30;;
69912;SDS011;57198;52.082;5.108;2023-02-10T11:47:25;16.70;;;11.77;;
69912;SDS011;57198;52.082;5.108;2023-02-10T11:49:53;20.10;;;12.23;;
69912;SDS011;57198;52.082;5.108;2023-02-10T11:52:21;14.25;;;11.00;;
69912;SDS011;57198;52.082;5.108;2023-02-10T11:54:49;14.68;;;11.23;;
69912;SDS011;57198;52.082;5.108;2023-02-10T12:00:23;14.63;;;11.23;;
69912;SDS011;57198;52.082;5.108;2023-02-10T12:10:33;16.48;;;12.38;;
69912;SDS011;57198;52.082;5.108;2023-02-10T12:13:15;17.60;;;12.68;;
69912;SDS011;57198;52.082;5.108;2023-02-10T12:15:47;18.73;;;13.47;;
69912;SDS011;57198;52.082;5.108;2023-02-10T12:18:20;18.80;;;13.40;;
69912;SDS011;57198;52.082;5.108;2023-02-10T12:21:09;22.63;;;13.75;;
69912;SDS011;57198;52.082;5.108;2023-02-10T12:28:57;20.73;;;13.73;;
69912;SDS011;57198;52.082;5.108;2023-02-10T12:31:44;22.13;;;14.05;;
69912;SDS011;57198;52.082;5.108;2023-02-10T12:42:33;22.27;;;13.80;;
69912;SDS011;57198;52.082;5.108;2023-02-10T12:50:54;24.17;;;14.95;;
69912;SDS011;57198;52.082;5.108;2023-02-10T12:53:27;21.85;;;14.95;;
69912;SDS011;57198;52.082;5.108;2023-02-10T12:55:56;27.00;;;16.47;;
69912;SDS011;57198;52.082;5.108;2023-02-10T12:58:30;24.20;;;16.17;;
69912;SDS011;57198;52.082;5.108;2023-02-10T13:03:33;25.23;;;16.45;;
69912;SDS011;57198;52.082;5.108;2023-02-10T13:08:52;26.87;;;16.37;;
69912;SDS011;57198;52.082;5.108;2023-02-10T13:13:48;28.25;;;16.55;;
69912;SDS011;57198;52.082;5.108;2023-02-10T13:16:20;25.75;;;16.58;;
69912;SDS011;57198;52.082;5.108;2023-02-10T13:24:18;29.25;;;16.15;;
69912;SDS011;57198;52.082;5.108;2023-02-10T13:34:45;27.50;;;18.73;;
69912;SDS011;57198;52.082;5.108;2023-02-10T13:38:05;28.50;;;18.40;;
69912;SDS011;57198;52.082;5.108;2023-02-10T13:43:03;34.22;;;19.85;;
69912;SDS011;57198;52.082;5.108;2023-02-10T13:45:32;31.88;;;20.80;;
69912;SDS011;57198;52.082;5.108;2023-02-10T13:48:01;31.17;;;20.23;;
69912;SDS011;57198;52.082;5.108;2023-02-10T13:50:41;34.28;;;21.02;;
69912;SDS011;57198;52.082;5.108;2023-02-10T13:56:11;33.00;;;18.50;;
69912;SDS011;57198;52.082;5.108;2023-02-10T13:59:23;32.65;;;21.20;;
69912;SDS011;57198;52.082;5.108;2023-02-10T14:06:44;27.17;;;17.05;;
69912;SDS011;57198;52.082;5.108;2023-02-10T14:11:50;27.55;;;19.17;;
69912;SDS011;57198;52.082;5.108;2023-02-10T14:16:46;34.33;;;21.20;;
69912;SDS011;57198;52.082;5.108;2023-02-10T14:22:00;38.28;;;22.90;;
69912;SDS011;57198;52.082;5.108;2023-02-10T14:24:29;37.65;;;23.33;;
69912;SDS011;57198;52.082;5.108;2023-02-10T14:27:14;35.70;;;23.03;;
69912;SDS011;57198;52.082;5.108;2023-02-10T14:29:46;41.55;;;25.65;;
69912;SDS011;57198;52.082;5.108;2023-02-10T14:32:16;38.60;;;24.05;;
69912;SDS011;57198;52.082;5.108;2023-02-10T14:34:56;31.15;;;20.85;;
69912;SDS011;57198;52.082;5.108;2023-02-10T14:37:24;39.22;;;22.33;;
69912;SDS011;57198;52.082;5.108;2023-02-10T14:39:59;34.57;;;22.13;;
69912;SDS011;57198;52.082;5.108;2023-02-10T14:42:28;31.70;;;21.10;;
69912;SDS011;57198;52.082;5.108;2023-02-10T14:44:57;32.22;;;20.15;;
69912;SDS011;57198;52.082;5.108;2023-02-10T14:47:32;32.30;;;18.83;;
69912;SDS011;57198;52.082;5.108;2023-02-10T14:50:00;36.42;;;20.02;;
69912;SDS011;57198;52.082;5.108;2023-02-10T14:52:31;35.97;;;20.90;;
69912;SDS011;57198;52.082;5.108;2023-02-10T14:57:50;31.83;;;20.13;;
69912;SDS011;57198;52.082;5.108;2023-02-10T15:00:18;34.28;;;19.15;;
69912;SDS011;57198;52.082;5.108;2023-02-10T15:02:50;31.17;;;17.42;;
69912;SDS011;57198;52.082;5.108;2023-02-10T15:05:20;36.93;;;19.07;;
69912;SDS011;57198;52.082;5.108;2023-02-10T15:07:49;34.95;;;20.40;;
69912;SDS011;57198;52.082;5.108;2023-02-10T15:10:21;34.40;;;19.73;;
69912;SDS011;57198;52.082;5.108;2023-02-10T15:12:51;33.47;;;18.58;;
69912;SDS011;57198;52.082;5.108;2023-02-10T15:15:30;32.28;;;20.85;;
69912;SDS011;57198;52.082;5.108;2023-02-10T15:18:02;36.10;;;20.00;;
69912;SDS011;57198;52.082;5.108;2023-02-10T15:20:34;36.33;;;20.13;;
69912;SDS011;57198;52.082;5.108;2023-02-10T15:23:03;31.25;;;18.30;;
69912;SDS011;57198;52.082;5.108;2023-02-10T15:25:34;37.42;;;23.20;;
69912;SDS011;57198;52.082;5.108;2023-02-10T15:33:18;33.92;;;21.83;;
69912;SDS011;57198;52.082;5.108;2023-02-10T15:35:53;30.00;;;17.90;;
69912;SDS011;57198;52.082;5.108;2023-02-10T15:38:24;35.13;;;20.92;;
69912;SDS011;57198;52.082;5.108;2023-02-10T15:40:55;34.03;;;21.35;;
69912;SDS011;57198;52.082;5.108;2023-02-10T15:43:27;34.65;;;19.45;;
69912;SDS011;57198;52.082;5.108;2023-02-10T15:46:13;35.05;;;20.05;;
69912;SDS011;57198;52.082;5.108;2023-02-10T15:48:42;36.33;;;19.90;;
69912;SDS011;57198;52.082;5.108;2023-02-10T15:51:15;37.13;;;20.80;;
69912;SDS011;57198;52.082;5.108;2023-02-10T15:53:46;36.75;;;21.65;;
69912;SDS011;57198;52.082;5.108;2023-02-10T15:56:14;33.88;;;18.90;;
69912;SDS011;57198;52.082;5.108;2023-02-10T15:58:41;34.45;;;20.67;;
69912;SDS011;57198;52.082;5.108;2023-02-10T16:01:08;35.92;;;20.13;;
69912;SDS011;57198;52.082;5.108;2023-02-10T16:03:36;31.45;;;19.98;;
69912;SDS011;57198;52.082;5.108;2023-02-10T16:06:03;34.67;;;21.98;;
69912;SDS011;57198;52.082;5.108;2023-02-10T16:08:31;32.78;;;19.25;;
69912;SDS011;57198;52.082;5.108;2023-02-10T16:10:58;38.65;;;23.35;;
69912;SDS011;57198;52.082;5.108;2023-02-10T16:13:28;38.83;;;23.55;;
69912;SDS011;57198;52.082;5.108;2023-02-10T16:15:56;34.47;;;20.23;;
69912;SDS011;57198;52.082;5.108;2023-02-10T16:18:24;32.45;;;19.75;;
69912;SDS011;57198;52.082;5.108;2023-02-10T16:20:52;38.60;;;21.83;;
69912;SDS011;57198;52.082;5.108;2023-02-10T16:23:19;39.13;;;22.75;;
69912;SDS011;57198;52.082;5.108;2023-02-10T16:25:47;40.42;;;21.73;;
69912;SDS011;57198;52.082;5.108;2023-02-10T16:28:16;35.10;;;20.13;;
69912;SDS011;57198;52.082;5.108;2023-02-10T16:30:44;37.33;;;22.42;;
69912;SDS011;57198;52.082;5.108;2023-02-10T16:33:13;40.70;;;21.50;;
69912;SDS011;57198;52.082;5.108;2023-02-10T16:35:43;35.15;;;19.00;;
69912;SDS011;57198;52.082;5.108;2023-02-10T16:38:10;30.58;;;20.60;;
69912;SDS011;57198;52.082;5.108;2023-02-10T16:40:45;32.47;;;19.98;;
69912;SDS011;57198;52.082;5.108;2023-02-10T16:43:12;36.47;;;22.00;;
69912;SDS011;57198;52.082;5.108;2023-02-10T16:45:39;36.72;;;20.33;;
69912;SDS011;57198;52.082;5.108;2023-02-10T16:48:08;38.25;;;21.50;;
69912;SDS011;57198;52.082;5.108;2023-02-10T16:50:39;34.22;;;21.98;;
69912;SDS011;57198;52.082;5.108;2023-02-10T16:53:07;37.97;;;21.33;;